Westport, CT

6:39 PM EDT on June 22, 2017 (GMT -0400)
Wild Rose Manor | | Change Station
Active Advisory: Coastal Flood Statement Active Notice: Coastal Flood Statement

Elev 89 ft 41.15 °N, 73.36 °W | Updated 20 seconds ago

Clear
Clear
78.1 °F
Feels Like 80 °F
N
0.0
Wind Variable Wind from NNE
Gusts 2.0 mph

Today
High -- | Low -- °F
--% Chance of Precip.
Yesterday
High -- | Low -- °F
Precip. -- in
Pressure 29.91 in
Visibility 10.0 miles
Clouds Clear
Heat Index 80 °F
Dew Point 65 °F
Humidity 64%
Rainfall 0.00 in
Snow Depth Not available.
5:21 AM 8:29 PM
Waning Crescent, 2% visible
METAR KBDR 222152Z 19012KT 10SM CLR 27/15 A2990 RMK AO2 SLP126 T02670150
Pressure 29.91 in
Visibility 10.0 miles
Clouds Clear
Heat Index 80 °F
Dew Point 65 °F
Humidity 64%
Rainfall 0.00 in
Snow Depth Not available.
5:21 AM 8:29 PM
Waning Crescent, 2% visible
METAR KBDR 222152Z 19012KT 10SM CLR 27/15 A2990 RMK AO2 SLP126 T02670150

Get Your Daily Forecast Email!

Thanks for signing up!

Be on the lookout for a verification email in your inbox.

You'll start receiving severe weather alerts in your inbox..

×

10-Day Weather Forecast

Almanac

Astronomy

Jun. 22, 2017 Rise Set
Actual Time
Civil Twilight
Nautical Twilight
Astronomical Twilight
Moon
Length of Visible Light
Length of Day
Tomorrow will be .
, % of the Moon is Illuminated

Today's Extremes

State Highs State Lows

Community

WunderPhotos

Category 6

Welcome to Category 6. This is the collective home for Weather Underground's featured writeups by Dr. Jeff Masters (right), Bob Henson (left), Chris Burt, and other regular contributors.

Nearby

Air Quality

  Air Quality AQ Index Pollutant
Not available.

Snow Depth

Station Depth Elevation

Earthquake Activity

City Distance Mag. Time & Date
Minimum magnitude displayed is 2.5.

Coastal Water Temperatures

Place Temperature

Stations

Nearby Weather Stations

Station Location Temp. Windchill Dew Point Humidity Wind Precip. Elev Updated Type
                   

Watches & Warnings

Coastal Flood Statement
Issued: 3:45 PM EDT Jun. 22, 2017 – National Weather Service

* locations... coastal Westchester and Fairfield counties.

* Positive tidal departures... 1/2 to 3/4 ft.

* Timing... times of high tide between 9 PM and 11 PM.

* Impacts... brief and minor flooding of the most vulnerable
shoreline and Waterfront roads and properties.